Temp: 4.0°C   Baro: 1036.5mb
  Wind: 0.0mph   Dir: W (273°)
  Rain: 0.0mm (0.0mm/hr)
  Solar: 0W/m2  Hum: 84%

Historic data

Bath Spa Weather Station Historical Data
Daily Summary for December 13, 2019 Units:  Both    English   Metric
Daily Weekly Monthly Yearly Custom
  High: Low: Average:
Temperature: 47.5 °F /  8.6 °C 41.2 °F /  5.1 °C 44.5 °F /  6.9 °C
Dew Point: 43 °F /  6.1 °C 36.6 °F /  2.6 °C 38.8 °F /  3.8 °C
Humidity: 93% 71% 81%
Wind Speed: 22.4mph /  36km/h - 8.8mph /  14.2km/h
Wind Gust: 33mph /  53.1km/h - -
Wind- - West
Pressure: 29.11 in /  985.7 hPa 28.73 in /  972.8 hPa -
Precipitation: 0.38 in /  9.65 mm    
Historical Graphs
 
 
Tabular Data for December 13, 2019
Time Temperature Dew Point Pressure Wind Wind Speed Wind Gust Humidity Rainfall Rate (Hourly) solar
00:09 46 °F /  7.8 °C 43 °F /  6.1 °C 28.73in /  972.8hPa West 10mph /  16.1km/h 16mph /  25.7km/h 89% 0.02in /  0.51mm 0 W/m2
00:14 46 °F /  7.8 °C 43 °F /  6.1 °C 28.73in /  972.8hPa West 10mph /  16.1km/h 17mph /  27.4km/h 89% 0.02in /  0.51mm 0 W/m2
00:19 45.9 °F /  7.7 °C 42.6 °F /  5.9 °C 28.73in /  972.8hPa WNW 14.1mph /  22.7km/h 21mph /  33.8km/h 88.4% 0.02in /  0.51mm 0 W/m2
00:24 45.9 °F /  7.7 °C 42.4 °F /  5.8 °C 28.74in /  973.1hPa West 6.4mph /  10.3km/h 21mph /  33.8km/h 87.4% 0.02in /  0.51mm 0 W/m2
00:29 45.7 °F /  7.6 °C 42.1 °F /  5.6 °C 28.74in /  973.1hPa West 15.4mph /  24.8km/h 27mph /  43.5km/h 87% 0.01in /  0.25mm 0 W/m2
00:34 45.7 °F /  7.6 °C 41.7 °F /  5.4 °C 28.74in /  973.1hPa West 10.4mph /  16.7km/h 25mph /  40.2km/h 86.2% 0.01in /  0.25mm 0 W/m2
00:39 45.3 °F /  7.4 °C 41.4 °F /  5.2 °C 28.74in /  973.1hPa West 14.6mph /  23.5km/h 26mph /  41.8km/h 86% 0.00in /  0mm 0 W/m2
00:44 45 °F /  7.2 °C 41.2 °F /  5.1 °C 28.74in /  973.1hPa WNW 8.6mph /  13.8km/h 22mph /  35.4km/h 86.2% 0.00in /  0mm 0 W/m2
00:49 45 °F /  7.2 °C 41.1 °F /  5.1 °C 28.74in /  973.1hPa West 10.6mph /  17.1km/h 22mph /  35.4km/h 86.3% 0.00in /  0mm 0 W/m2
00:54 45.1 °F /  7.3 °C 41.3 °F /  5.2 °C 28.74in /  973.1hPa West 19.4mph /  31.2km/h 32mph /  51.5km/h 86.4% 0.00in /  0mm 0 W/m2
00:59 45.3 °F /  7.4 °C 41.2 °F /  5.1 °C 28.74in /  973.1hPa West 13.4mph /  21.6km/h 32mph /  51.5km/h 85.4% 0.00in /  0mm 0 W/m2
01:04 45.1 °F /  7.3 °C 40.8 °F /  4.9 °C 28.74in /  973.1hPa WNW 13.1mph /  21.1km/h 27mph /  43.5km/h 85% 0.00in /  0mm 0 W/m2
01:09 45 °F /  7.2 °C 40.7 °F /  4.8 °C 28.74in /  973.1hPa WNW 11.6mph /  18.7km/h 24mph /  38.6km/h 85% 0.00in /  0mm 0 W/m2
01:14 45 °F /  7.2 °C 40.6 °F /  4.8 °C 28.74in /  973.1hPa West 9.8mph /  15.8km/h 20mph /  32.2km/h 85% 0.00in /  0mm 0 W/m2
01:19 45 °F /  7.2 °C 40.6 °F /  4.8 °C 28.74in /  973.1hPa WNW 13.2mph /  21.2km/h 23mph /  37km/h 85% 0.00in /  0mm 0 W/m2
01:24 45.1 °F /  7.3 °C 40.6 °F /  4.8 °C 28.74in /  973.1hPa West 12.8mph /  20.6km/h 23mph /  37km/h 84% 0.00in /  0mm 0 W/m2
01:29 45.1 °F /  7.3 °C 40.3 °F /  4.6 °C 28.75in /  973.5hPa West 15mph /  24.1km/h 26mph /  41.8km/h 83.2% 0.00in /  0mm 0 W/m2
01:34 45 °F /  7.2 °C 40.1 °F /  4.5 °C 28.75in /  973.5hPa WNW 11.6mph /  18.7km/h 21mph /  33.8km/h 83% 0.00in /  0mm 0 W/m2
01:39 45 °F /  7.2 °C 40.1 °F /  4.5 °C 28.75in /  973.5hPa West 10.3mph /  16.6km/h 23mph /  37km/h 83% 0.00in /  0mm 0 W/m2
01:44 44.9 °F /  7.2 °C 40 °F /  4.4 °C 28.75in /  973.5hPa West 17mph /  27.4km/h 25mph /  40.2km/h 83% 0.00in /  0mm 0 W/m2
01:49 44.8 °F /  7.1 °C 39.9 °F /  4.4 °C 28.76in /  973.8hPa West 15mph /  24.1km/h 22mph /  35.4km/h 83% 0.00in /  0mm 0 W/m2
01:54 44.7 °F /  7.1 °C 39.8 °F /  4.3 °C 28.76in /  973.8hPa West 11.8mph /  19km/h 21mph /  33.8km/h 83% 0.00in /  0mm 0 W/m2
01:59 44.5 °F /  6.9 °C 39.7 °F /  4.3 °C 28.76in /  973.8hPa West 8.6mph /  13.8km/h 16mph /  25.7km/h 83% 0.00in /  0mm 0 W/m2
02:04 44.4 °F /  6.9 °C 39.6 °F /  4.2 °C 28.77in /  974.2hPa West 8.8mph /  14.2km/h 18mph /  29km/h 83% 0.00in /  0mm 0 W/m2
02:09 44.5 °F /  6.9 °C 39.7 °F /  4.3 °C 28.77in /  974.2hPa West 7.2mph /  11.6km/h 18mph /  29km/h 83% 0.00in /  0mm 0 W/m2
02:14 44.6 °F /  7 °C 39.7 °F /  4.3 °C 28.77in /  974.2hPa WNW 7.1mph /  11.4km/h 20mph /  32.2km/h 83% 0.00in /  0mm 0 W/m2
02:19 44.5 °F /  6.9 °C 39.7 °F /  4.3 °C 28.77in /  974.2hPa West 9.6mph /  15.4km/h 17mph /  27.4km/h 83% 0.00in /  0mm 0 W/m2
02:24 44.4 °F /  6.9 °C 39.6 °F /  4.2 °C 28.78in /  974.5hPa West 8.4mph /  13.5km/h 18mph /  29km/h 83% 0.00in /  0mm 0 W/m2
02:29 44.3 °F /  6.8 °C 39.5 °F /  4.2 °C 28.78in /  974.5hPa West 7.8mph /  12.6km/h 16mph /  25.7km/h 83% 0.00in /  0mm 0 W/m2
02:34 44.4 °F /  6.9 °C 39.2 °F /  4 °C 28.78in /  974.5hPa West 12.3mph /  19.8km/h 21mph /  33.8km/h 82% 0.00in /  0mm 0 W/m2
02:39 44.6 °F /  7 °C 39.4 °F /  4.1 °C 28.79in /  974.8hPa West 8.4mph /  13.5km/h 17mph /  27.4km/h 82% 0.00in /  0mm 0 W/m2
02:44 44.4 °F /  6.9 °C 39 °F /  3.9 °C 28.79in /  974.8hPa West 10.6mph /  17.1km/h 17mph /  27.4km/h 81.2% 0.00in /  0mm 0 W/m2
02:49 44.2 °F /  6.8 °C 38.8 °F /  3.8 °C 28.79in /  974.8hPa West 6.6mph /  10.6km/h 15mph /  24.1km/h 81% 0.00in /  0mm 0 W/m2
02:54 44.1 °F /  6.7 °C 38.8 °F /  3.8 °C 28.79in /  974.8hPa WNW 9.8mph /  15.8km/h 20mph /  32.2km/h 82% 0.00in /  0mm 0 W/m2
02:59 44.1 °F /  6.7 °C 38.8 °F /  3.8 °C 28.80in /  975.2hPa WNW 13.4mph /  21.6km/h 29mph /  46.7km/h 82% 0.00in /  0mm 0 W/m2
03:04 44.1 °F /  6.7 °C 38.8 °F /  3.8 °C 28.80in /  975.2hPa West 9.3mph /  15km/h 29mph /  46.7km/h 82% 0.00in /  0mm 0 W/m2
03:09 43.9 °F /  6.6 °C 39 °F /  3.9 °C 28.80in /  975.2hPa West 14.8mph /  23.8km/h 21mph /  33.8km/h 82.8% 0.00in /  0mm 0 W/m2
03:14 44.1 °F /  6.7 °C 39.2 °F /  4 °C 28.81in /  975.5hPa West 13.8mph /  22.2km/h 23mph /  37km/h 83% 0.00in /  0mm 0 W/m2
03:19 44 °F /  6.7 °C 39.1 °F /  3.9 °C 28.80in /  975.2hPa West 10.6mph /  17.1km/h 19mph /  30.6km/h 83% 0.00in /  0mm 0 W/m2
03:24 43.9 °F /  6.6 °C 39 °F /  3.9 °C 28.81in /  975.5hPa WNW 10.5mph /  16.9km/h 17mph /  27.4km/h 83% 0.00in /  0mm 0 W/m2
03:29 44 °F /  6.7 °C 39.1 °F /  3.9 °C 28.81in /  975.5hPa West 12.6mph /  20.3km/h 19mph /  30.6km/h 83% 0.00in /  0mm 0 W/m2
03:34 44.1 °F /  6.7 °C 39.2 °F /  4 °C 28.82in /  975.8hPa WNW 8.6mph /  13.8km/h 22mph /  35.4km/h 83% 0.00in /  0mm 0 W/m2
03:39 44 °F /  6.7 °C 39.2 °F /  4 °C 28.82in /  975.8hPa WNW 10.2mph /  16.4km/h 17mph /  27.4km/h 83.2% 0.00in /  0mm 0 W/m2
03:44 44 °F /  6.7 °C 39.5 °F /  4.2 °C 28.82in /  975.8hPa West 10.8mph /  17.4km/h 20mph /  32.2km/h 84% 0.00in /  0mm 0 W/m2
03:49 44 °F /  6.7 °C 39.5 °F /  4.2 °C 28.82in /  975.8hPa West 8.6mph /  13.8km/h 15mph /  24.1km/h 84% 0.00in /  0mm 0 W/m2
03:54 44 °F /  6.7 °C 39.5 °F /  4.2 °C 28.82in /  975.8hPa West 10.5mph /  16.9km/h 16mph /  25.7km/h 84% 0.00in /  0mm 0 W/m2
03:59 44 °F /  6.7 °C 39.5 °F /  4.2 °C 28.82in /  975.8hPa West 9.4mph /  15.1km/h 19mph /  30.6km/h 84% 0.00in /  0mm 0 W/m2
04:04 44.1 °F /  6.7 °C 39.6 °F /  4.2 °C 28.83in /  976.2hPa West 10.5mph /  16.9km/h 17mph /  27.4km/h 84% 0.00in /  0mm 0 W/m2
04:09 44.1 °F /  6.7 °C 39.6 °F /  4.2 °C 28.83in /  976.2hPa WNW 13.6mph /  21.9km/h 23mph /  37km/h 84% 0.00in /  0mm 0 W/m2
04:14 44 °F /  6.7 °C 39.5 °F /  4.2 °C 28.83in /  976.2hPa West 10.8mph /  17.4km/h 22mph /  35.4km/h 84% 0.00in /  0mm 0 W/m2
04:19 43.9 °F /  6.6 °C 39.4 °F /  4.1 °C 28.83in /  976.2hPa WNW 9.2mph /  14.8km/h 22mph /  35.4km/h 84.2% 0.00in /  0mm 0 W/m2
04:24 43.6 °F /  6.4 °C 39.5 °F /  4.2 °C 28.83in /  976.2hPa West 11.8mph /  19km/h 19mph /  30.6km/h 85% 0.00in /  0mm 0 W/m2
04:29 43.6 °F /  6.4 °C 39.5 °F /  4.2 °C 28.83in /  976.2hPa West 11.4mph /  18.3km/h 20mph /  32.2km/h 85% 0.00in /  0mm 0 W/m2
04:34 43.5 °F /  6.4 °C 39.4 °F /  4.1 °C 28.84in /  976.5hPa West 9.9mph /  15.9km/h 17mph /  27.4km/h 85% 0.00in /  0mm 0 W/m2
04:39 43.6 °F /  6.4 °C 39.5 °F /  4.2 °C 28.84in /  976.5hPa West 10.7mph /  17.2km/h 19mph /  30.6km/h 85% 0.00in /  0mm 0 W/m2
04:44 43.6 °F /  6.4 °C 39.5 °F /  4.2 °C 28.84in /  976.5hPa West 9.8mph /  15.8km/h 19mph /  30.6km/h 85% 0.00in /  0mm 0 W/m2
04:49 43.6 °F /  6.4 °C 39.5 °F /  4.2 °C 28.85in /  976.9hPa West 7.6mph /  12.2km/h 15mph /  24.1km/h 85% 0.00in /  0mm 0 W/m2
04:54 43.7 °F /  6.5 °C 39.6 °F /  4.2 °C 28.85in /  976.9hPa West 9.4mph /  15.1km/h 18mph /  29km/h 85% 0.00in /  0mm 0 W/m2
04:59 43.9 °F /  6.6 °C 39.7 °F /  4.3 °C 28.85in /  976.9hPa West 7.2mph /  11.6km/h 15mph /  24.1km/h 85% 0.00in /  0mm 0 W/m2
05:04 43.9 °F /  6.6 °C 39.5 °F /  4.2 °C 28.86in /  977.2hPa West 9mph /  14.5km/h 21mph /  33.8km/h 84.4% 0.00in /  0mm 0 W/m2
05:09 43.9 °F /  6.6 °C 39.4 °F /  4.1 °C 28.86in /  977.2hPa West 9mph /  14.5km/h 21mph /  33.8km/h 84% 0.00in /  0mm 0 W/m2
05:14 43.9 °F /  6.6 °C 39.4 °F /  4.1 °C 28.86in /  977.2hPa West 9mph /  14.5km/h 17mph /  27.4km/h 84% 0.00in /  0mm 0 W/m2
05:19 43.9 °F /  6.6 °C 39.4 °F /  4.1 °C 28.86in /  977.2hPa West 7mph /  11.3km/h 17mph /  27.4km/h 84% 0.00in /  0mm 0 W/m2
05:24 43.8 °F /  6.6 °C 39.3 °F /  4.1 °C 28.87in /  977.5hPa WNW 11.3mph /  18.2km/h 18mph /  29km/h 84% 0.00in /  0mm 0 W/m2
05:29 43.7 °F /  6.5 °C 39.2 °F /  4 °C 28.87in /  977.5hPa West 11.2mph /  18km/h 18mph /  29km/h 84% 0.00in /  0mm 0 W/m2
05:34 43.7 °F /  6.5 °C 39.2 °F /  4 °C 28.87in /  977.5hPa West 12mph /  19.3km/h 25mph /  40.2km/h 84% 0.00in /  0mm 0 W/m2
05:39 43.7 °F /  6.5 °C 39.2 °F /  4 °C 28.87in /  977.5hPa West 10mph /  16.1km/h 22mph /  35.4km/h 84% 0.00in /  0mm 0 W/m2
05:44 43.9 °F /  6.6 °C 39.4 °F /  4.1 °C 28.88in /  977.9hPa West 12.7mph /  20.4km/h 23mph /  37km/h 84% 0.00in /  0mm 0 W/m2
05:49 43.9 °F /  6.6 °C 39 °F /  3.9 °C 28.87in /  977.5hPa West 17.7mph /  28.5km/h 24mph /  38.6km/h 83% 0.00in /  0mm 0 W/m2
05:54 43.9 °F /  6.6 °C 39 °F /  3.9 °C 28.88in /  977.9hPa West 10.8mph /  17.4km/h 24mph /  38.6km/h 83% 0.00in /  0mm 0 W/m2
05:59 43.8 °F /  6.6 °C 38.9 °F /  3.8 °C 28.89in /  978.2hPa WNW 13.3mph /  21.4km/h 26mph /  41.8km/h 83% 0.00in /  0mm 0 W/m2
06:04 43.9 °F /  6.6 °C 39 °F /  3.9 °C 28.89in /  978.2hPa WNW 13.7mph /  22km/h 22mph /  35.4km/h 83% 0.00in /  0mm 0 W/m2
06:09 44 °F /  6.7 °C 38.8 °F /  3.8 °C 28.89in /  978.2hPa West 12.9mph /  20.8km/h 23mph /  37km/h 82% 0.00in /  0mm 0 W/m2
06:14 44.1 °F /  6.7 °C 38.7 °F /  3.7 °C 28.89in /  978.2hPa West 11.3mph /  18.2km/h 20mph /  32.2km/h 81% 0.00in /  0mm 0 W/m2
06:19 44.2 °F /  6.8 °C 38.6 °F /  3.7 °C 28.90in /  978.6hPa WNW 15.2mph /  24.5km/h 27mph /  43.5km/h 80.4% 0.00in /  0mm 0 W/m2
06:24 44.2 °F /  6.8 °C 38.5 °F /  3.6 °C 28.89in /  978.2hPa WNW 11mph /  17.7km/h 22mph /  35.4km/h 80% 0.00in /  0mm 0 W/m2
06:29 44.2 °F /  6.8 °C 38.3 °F /  3.5 °C 28.90in /  978.6hPa West 18.5mph /  29.8km/h 25mph /  40.2km/h 79.6% 0.00in /  0mm 0 W/m2
06:34 44.2 °F /  6.8 °C 38.1 °F /  3.4 °C 28.90in /  978.6hPa West 13.3mph /  21.4km/h 25mph /  40.2km/h 79% 0.00in /  0mm 0 W/m2
06:39 44.3 °F /  6.8 °C 38.2 °F /  3.4 °C 28.91in /  978.9hPa West 12.9mph /  20.8km/h 24mph /  38.6km/h 79% 0.00in /  0mm 0 W/m2
06:44 44.4 °F /  6.9 °C 38 °F /  3.3 °C 28.92in /  979.2hPa West 9.8mph /  15.8km/h 24mph /  38.6km/h 78.2% 0.00in /  0mm 0 W/m2
06:49 44.4 °F /  6.9 °C 37.9 °F /  3.3 °C 28.92in /  979.2hPa West 11.6mph /  18.7km/h 19mph /  30.6km/h 78% 0.00in /  0mm 0 W/m2
06:54 44.4 °F /  6.9 °C 37.9 °F /  3.3 °C 28.92in /  979.2hPa West 9.6mph /  15.4km/h 19mph /  30.6km/h 78% 0.00in /  0mm 0 W/m2
06:59 44.3 °F /  6.8 °C 37.9 °F /  3.3 °C 28.92in /  979.2hPa WNW 8.8mph /  14.2km/h 20mph /  32.2km/h 78% 0.00in /  0mm 0 W/m2
07:04 44.2 °F /  6.8 °C 37.8 °F /  3.2 °C 28.92in /  979.2hPa WNW 8mph /  12.9km/h 17mph /  27.4km/h 78% 0.00in /  0mm 0 W/m2
07:09 44.2 °F /  6.8 °C 37.8 °F /  3.2 °C 28.92in /  979.2hPa West 13.3mph /  21.4km/h 19mph /  30.6km/h 78% 0.00in /  0mm 0 W/m2
07:14 44.2 °F /  6.8 °C 37.6 °F /  3.1 °C 28.93in /  979.6hPa WNW 12.9mph /  20.8km/h 22mph /  35.4km/h 77.4% 0.00in /  0mm 0 W/m2
07:19 44.2 °F /  6.8 °C 37.6 °F /  3.1 °C 28.94in /  979.9hPa West 18.3mph /  29.5km/h 29mph /  46.7km/h 77% 0.00in /  0mm 0 W/m2
07:24 44.2 °F /  6.8 °C 37.6 °F /  3.1 °C 28.94in /  979.9hPa West 9.6mph /  15.4km/h 21mph /  33.8km/h 77% 0.00in /  0mm 0 W/m2
07:29 44.2 °F /  6.8 °C 37.3 °F /  2.9 °C 28.95in /  980.2hPa West 11.8mph /  19km/h 24mph /  38.6km/h 76.2% 0.00in /  0mm 0 W/m2
07:34 44.3 °F /  6.8 °C 37.3 °F /  2.9 °C 28.95in /  980.2hPa West 13.4mph /  21.6km/h 23mph /  37km/h 76% 0.00in /  0mm 0 W/m2
07:39 44.3 °F /  6.8 °C 37.3 °F /  2.9 °C 28.95in /  980.2hPa West 11.2mph /  18km/h 18mph /  29km/h 76% 0.00in /  0mm 0 W/m2
07:44 44.3 °F /  6.8 °C 37.3 °F /  2.9 °C 28.96in /  980.6hPa West 13.1mph /  21.1km/h 23mph /  37km/h 76% 0.00in /  0mm 0 W/m2
07:49 44.3 °F /  6.8 °C 37.3 °F /  2.9 °C 28.96in /  980.6hPa West 11.3mph /  18.2km/h 18mph /  29km/h 76% 0.00in /  0mm 0 W/m2
07:54 44.3 °F /  6.8 °C 37.1 °F /  2.8 °C 28.97in /  980.9hPa West 12.2mph /  19.6km/h 21mph /  33.8km/h 75.6% 0.00in /  0mm 0 W/m2
07:59 44.2 °F /  6.8 °C 37.1 °F /  2.8 °C 28.97in /  980.9hPa WNW 10.4mph /  16.7km/h 17mph /  27.4km/h 75.8% 0.00in /  0mm 0 W/m2
08:04 44.2 °F /  6.8 °C 37.2 °F /  2.9 °C 28.97in /  980.9hPa West 9.8mph /  15.8km/h 19mph /  30.6km/h 76% 0.00in /  0mm 0 W/m2
08:09 44.1 °F /  6.7 °C 37.1 °F /  2.8 °C 28.97in /  980.9hPa WNW 8.2mph /  13.2km/h 17mph /  27.4km/h 76% 0.00in /  0mm 5 W/m2
08:14 44.1 °F /  6.7 °C 37 °F /  2.8 °C 28.98in /  981.3hPa West 9.8mph /  15.8km/h 16mph /  25.7km/h 76% 0.00in /  0mm 7 W/m2
08:19 44.1 °F /  6.7 °C 37 °F /  2.8 °C 28.98in /  981.3hPa West 9.8mph /  15.8km/h 14mph /  22.5km/h 76% 0.00in /  0mm 11 W/m2
08:24 44.1 °F /  6.7 °C 37 °F /  2.8 °C 28.99in /  981.6hPa West 9mph /  14.5km/h 20mph /  32.2km/h 76% 0.00in /  0mm 16 W/m2
08:29 44.1 °F /  6.7 °C 37 °F /  2.8 °C 28.99in /  981.6hPa West 9.8mph /  15.8km/h 17mph /  27.4km/h 76% 0.00in /  0mm 26 W/m2
08:34 44.1 °F /  6.7 °C 37 °F /  2.8 °C 28.99in /  981.6hPa WNW 9.8mph /  15.8km/h 20mph /  32.2km/h 76% 0.00in /  0mm 46 W/m2
08:39 44.1 °F /  6.7 °C 37 °F /  2.8 °C 29.00in /  981.9hPa West 9.3mph /  15km/h 20mph /  32.2km/h 76% 0.00in /  0mm 49 W/m2
08:44 44.2 °F /  6.8 °C 37.1 °F /  2.8 °C 29.00in /  981.9hPa West 6.8mph /  10.9km/h 20mph /  32.2km/h 76% 0.00in /  0mm 49 W/m2
08:49 44.2 °F /  6.8 °C 37 °F /  2.8 °C 29.00in /  981.9hPa West 9.4mph /  15.1km/h 20mph /  32.2km/h 75.4% 0.00in /  0mm 46 W/m2
08:54 44.2 °F /  6.8 °C 36.9 °F /  2.7 °C 29.00in /  981.9hPa West 11mph /  17.7km/h 20mph /  32.2km/h 75% 0.00in /  0mm 62 W/m2
08:59 44.3 °F /  6.8 °C 36.9 °F /  2.7 °C 29.01in /  982.3hPa West 11.8mph /  19km/h 18mph /  29km/h 75% 0.00in /  0mm 60 W/m2
09:04 44.4 °F /  6.9 °C 36.9 °F /  2.7 °C 29.01in /  982.3hPa West 8mph /  12.9km/h 18mph /  29km/h 74.8% 0.00in /  0mm 54 W/m2
09:09 44.4 °F /  6.9 °C 36.9 °F /  2.7 °C 29.01in /  982.3hPa West 10.4mph /  16.7km/h 18mph /  29km/h 74.6% 0.00in /  0mm 47 W/m2
09:14 44.5 °F /  6.9 °C 36.8 °F /  2.7 °C 29.01in /  982.3hPa WNW 11.3mph /  18.2km/h 24mph /  38.6km/h 74% 0.00in /  0mm 51 W/m2
09:19 44.6 °F /  7 °C 36.7 °F /  2.6 °C 29.02in /  982.6hPa WNW 13mph /  20.9km/h 24mph /  38.6km/h 73.6% 0.00in /  0mm 49 W/m2
09:24 44.8 °F /  7.1 °C 37 °F /  2.8 °C 29.02in /  982.6hPa West 10.3mph /  16.6km/h 22mph /  35.4km/h 74% 0.00in /  0mm 51 W/m2
09:29 44.8 °F /  7.1 °C 37 °F /  2.8 °C 29.03in /  983hPa West 9.8mph /  15.8km/h 21mph /  33.8km/h 74% 0.00in /  0mm 88 W/m2
09:34 45 °F /  7.2 °C 37.2 °F /  2.9 °C 29.03in /  983hPa West 11.2mph /  18km/h 20mph /  32.2km/h 74% 0.00in /  0mm 70 W/m2
09:39 45.1 °F /  7.3 °C 37.4 °F /  3 °C 29.03in /  983hPa West 12.8mph /  20.6km/h 23mph /  37km/h 74% 0.00in /  0mm 72 W/m2
09:44 45.2 °F /  7.3 °C 37.5 °F /  3.1 °C 29.04in /  983.3hPa West 11mph /  17.7km/h 22mph /  35.4km/h 74% 0.00in /  0mm 83 W/m2
09:49 45.3 °F /  7.4 °C 37.6 °F /  3.1 °C 29.04in /  983.3hPa WNW 15.8mph /  25.4km/h 25mph /  40.2km/h 74% 0.00in /  0mm 98 W/m2
09:54 45.3 °F /  7.4 °C 37.4 °F /  3 °C 29.05in /  983.6hPa West 12.6mph /  20.3km/h 22mph /  35.4km/h 73.4% 0.02in /  0.51mm 118 W/m2
09:59 45.6 °F /  7.6 °C 37.5 °F /  3.1 °C 29.05in /  983.6hPa WSW 14.4mph /  23.2km/h 23mph /  37km/h 73% 0.02in /  0.51mm 123 W/m2
10:04 45.5 °F /  7.5 °C 37.4 °F /  3 °C 29.05in /  983.6hPa West 8.6mph /  13.8km/h 23mph /  37km/h 73% 0.02in /  0.51mm 111 W/m2
10:09 45.4 °F /  7.4 °C 37.6 °F /  3.1 °C 29.05in /  983.6hPa West 10mph /  16.1km/h 20mph /  32.2km/h 73.8% 0.02in /  0.51mm 95 W/m2
10:14 45.3 °F /  7.4 °C 37.6 °F /  3.1 °C 29.06in /  984hPa West 10.6mph /  17.1km/h 20mph /  32.2km/h 74% 0.02in /  0.51mm 47 W/m2
10:19 45.3 °F /  7.4 °C 37.6 °F /  3.1 °C 29.06in /  984hPa West 9mph /  14.5km/h 20mph /  32.2km/h 74% 0.02in /  0.51mm 44 W/m2
10:24 45.3 °F /  7.4 °C 37.6 °F /  3.1 °C 29.06in /  984hPa West 11.4mph /  18.3km/h 23mph /  37km/h 74% 0.02in /  0.51mm 47 W/m2
10:29 45.3 °F /  7.4 °C 37.6 °F /  3.1 °C 29.06in /  984hPa West 14.4mph /  23.2km/h 27mph /  43.5km/h 74% 0.02in /  0.51mm 49 W/m2
10:34 45.5 °F /  7.5 °C 37.6 °F /  3.1 °C 29.06in /  984hPa WNW 9.6mph /  15.4km/h 27mph /  43.5km/h 73.6% 0.02in /  0.51mm 47 W/m2
10:39 45.5 °F /  7.5 °C 37.8 °F /  3.2 °C 29.07in /  984.3hPa West 10.4mph /  16.7km/h 26mph /  41.8km/h 74% 0.03in /  0.76mm 49 W/m2
10:44 45.6 °F /  7.6 °C 37.6 °F /  3.1 °C 29.07in /  984.3hPa West 12.5mph /  20.1km/h 27mph /  43.5km/h 73.4% 0.03in /  0.76mm 47 W/m2
10:49 45.5 °F /  7.5 °C 37.8 °F /  3.2 °C 29.07in /  984.3hPa WSW 11.9mph /  19.2km/h 20mph /  32.2km/h 74% 0.03in /  0.76mm 47 W/m2
10:54 45.6 °F /  7.6 °C 38 °F /  3.3 °C 29.07in /  984.3hPa West 8.7mph /  14km/h 17mph /  27.4km/h 74.4% 0.02in /  0.51mm 46 W/m2
10:59 45.6 °F /  7.6 °C 38.2 °F /  3.4 °C 29.07in /  984.3hPa West 5.9mph /  9.5km/h 14mph /  22.5km/h 75% 0.02in /  0.51mm 39 W/m2
11:04 45.6 °F /  7.6 °C 38.2 °F /  3.4 °C 29.07in /  984.3hPa West 10mph /  16.1km/h 17mph /  27.4km/h 75% 0.02in /  0.51mm 51 W/m2
11:09 45.7 °F /  7.6 °C 38.2 °F /  3.4 °C 29.08in /  984.6hPa West 14.2mph /  22.9km/h 22mph /  35.4km/h 74.6% 0.02in /  0.51mm 62 W/m2
11:14 45.9 °F /  7.7 °C 38.1 °F /  3.4 °C 29.08in /  984.6hPa West 8.3mph /  13.4km/h 21mph /  33.8km/h 74% 0.02in /  0.51mm 72 W/m2
11:19 45.9 °F /  7.7 °C 38.1 °F /  3.4 °C 29.08in /  984.6hPa West 9.6mph /  15.4km/h 21mph /  33.8km/h 74% 0.02in /  0.51mm 67 W/m2
11:24 45.9 °F /  7.7 °C 38.1 °F /  3.4 °C 29.08in /  984.6hPa West 8.7mph /  14km/h 21mph /  33.8km/h 74% 0.02in /  0.51mm 62 W/m2
11:29 46 °F /  7.8 °C 37.9 °F /  3.3 °C 29.08in /  984.6hPa WNW 11.6mph /  18.7km/h 23mph /  37km/h 73% 0.02in /  0.51mm 63 W/m2
11:34 46 °F /  7.8 °C 37.9 °F /  3.3 °C 29.08in /  984.6hPa West 15.4mph /  24.8km/h 26mph /  41.8km/h 73% 0.02in /  0.51mm 56 W/m2
11:39 46 °F /  7.8 °C 37.9 °F /  3.3 °C 29.08in /  984.6hPa West 9.1mph /  14.6km/h 26mph /  41.8km/h 73% 0.03in /  0.76mm 58 W/m2
11:44 46 °F /  7.8 °C 37.9 °F /  3.3 °C 29.08in /  984.6hPa West 14.6mph /  23.5km/h 19mph /  30.6km/h 73% 0.02in /  0.51mm 62 W/m2
11:49 46.2 °F /  7.9 °C 38.1 °F /  3.4 °C 29.08in /  984.6hPa WNW 9mph /  14.5km/h 19mph /  30.6km/h 73% 0.02in /  0.51mm 60 W/m2
11:53 46.3 °F /  7.9 °C 38.4 °F /  3.6 °C 29.08in /  984.6hPa West 10.2mph /  16.4km/h 27mph /  43.5km/h 73.8% 0.03in /  0.76mm 49 W/m2
11:59 46.4 °F /  8 °C 38.7 °F /  3.7 °C 29.08in /  984.6hPa West 11.8mph /  19km/h 26mph /  41.8km/h 74.4% 0.04in /  1.02mm 62 W/m2
12:04 46.6 °F /  8.1 °C 38.9 °F /  3.8 °C 29.08in /  984.6hPa West 9.8mph /  15.8km/h 22mph /  35.4km/h 74.8% 0.04in /  1.02mm 54 W/m2
12:09 46.6 °F /  8.1 °C 39 °F /  3.9 °C 29.08in /  984.6hPa West 8.6mph /  13.8km/h 19mph /  30.6km/h 75% 0.04in /  1.02mm 125 W/m2
12:14 46.8 °F /  8.2 °C 39.2 °F /  4 °C 29.08in /  984.6hPa West 11.2mph /  18km/h 26mph /  41.8km/h 75% 0.04in /  1.02mm 267 W/m2
12:19 47.2 °F /  8.4 °C 39.6 °F /  4.2 °C 29.08in /  984.6hPa West 15.8mph /  25.4km/h 25mph /  40.2km/h 75% 0.04in /  1.02mm 299 W/m2
12:24 47.5 °F /  8.6 °C 39.6 °F /  4.2 °C 29.08in /  984.6hPa West 12.8mph /  20.6km/h 26mph /  41.8km/h 74% 0.04in /  1.02mm 274 W/m2
12:29 47.3 °F /  8.5 °C 39 °F /  3.9 °C 29.08in /  984.6hPa West 15.8mph /  25.4km/h 26mph /  41.8km/h 73% 0.05in /  1.27mm 227 W/m2
12:34 47.1 °F /  8.4 °C 38.8 °F /  3.8 °C 29.08in /  984.6hPa West 14mph /  22.5km/h 26mph /  41.8km/h 73% 0.06in /  1.52mm 237 W/m2
12:39 47.1 °F /  8.4 °C 38.5 °F /  3.6 °C 29.08in /  984.6hPa West 20.2mph /  32.5km/h 33mph /  53.1km/h 72% 0.06in /  1.52mm 220 W/m2
12:44 47.1 °F /  8.4 °C 38.5 °F /  3.6 °C 29.09in /  985hPa West 19.8mph /  31.9km/h 33mph /  53.1km/h 72% 0.13in /  3.3mm 202 W/m2
12:49 47.1 °F /  8.4 °C 38.5 °F /  3.6 °C 29.09in /  985hPa West 22.4mph /  36km/h 31mph /  49.9km/h 72% 0.13in /  3.3mm 165 W/m2
12:54 47.1 °F /  8.4 °C 38.2 °F /  3.4 °C 29.09in /  985hPa West 17.8mph /  28.6km/h 32mph /  51.5km/h 71.2% 0.20in /  5.08mm 156 W/m2
12:59 47.1 °F /  8.4 °C 38.1 °F /  3.4 °C 29.10in /  985.3hPa West 16.4mph /  26.4km/h 30mph /  48.3km/h 71% 0.21in /  5.33mm 165 W/m2
13:03 47.1 °F /  8.4 °C 38.3 °F /  3.5 °C 29.10in /  985.3hPa WSW 14.8mph /  23.8km/h 23mph /  37km/h 71.5% 0.21in /  5.33mm 183 W/m2
13:09 46.9 °F /  8.3 °C 38.3 °F /  3.5 °C 29.10in /  985.3hPa West 13.7mph /  22km/h 30mph /  48.3km/h 71.8% 0.21in /  5.33mm 169 W/m2
13:14 46.8 °F /  8.2 °C 38.3 °F /  3.5 °C 29.10in /  985.3hPa West 16.4mph /  26.4km/h 25mph /  40.2km/h 72% 0.21in /  5.33mm 183 W/m2
13:19 46.8 °F /  8.2 °C 38.3 °F /  3.5 °C 29.10in /  985.3hPa West 13mph /  20.9km/h 25mph /  40.2km/h 72% 0.21in /  5.33mm 172 W/m2
13:24 46.9 °F /  8.3 °C 38.3 °F /  3.5 °C 29.10in /  985.3hPa West 13.8mph /  22.2km/h 27mph /  43.5km/h 72% 0.21in /  5.33mm 185 W/m2
13:29 46.9 °F /  8.3 °C 38.3 °F /  3.5 °C 29.09in /  985hPa West 20.1mph /  32.3km/h 29mph /  46.7km/h 72% 0.24in /  6.1mm 77 W/m2
13:34 46.8 °F /  8.2 °C 38.3 °F /  3.5 °C 29.09in /  985hPa West 11.6mph /  18.7km/h 29mph /  46.7km/h 72% 0.24in /  6.1mm 104 W/m2
13:39 46.8 °F /  8.2 °C 38.3 °F /  3.5 °C 29.09in /  985hPa West 12.3mph /  19.8km/h 19mph /  30.6km/h 72% 0.24in /  6.1mm 134 W/m2
13:44 46.9 °F /  8.3 °C 38.3 °F /  3.5 °C 29.09in /  985hPa West 15.6mph /  25.1km/h 22mph /  35.4km/h 72% 0.20in /  5.08mm 134 W/m2
13:49 46.9 °F /  8.3 °C 38.3 °F /  3.5 °C 29.09in /  985hPa West 19.4mph /  31.2km/h 33mph /  53.1km/h 72% 0.16in /  4.06mm 107 W/m2
13:54 46.8 °F /  8.2 °C 38 °F /  3.3 °C 29.09in /  985hPa WNW 15.2mph /  24.5km/h 33mph /  53.1km/h 71.2% 0.12in /  3.05mm 69 W/m2
13:59 46.4 °F /  8 °C 38 °F /  3.3 °C 29.09in /  985hPa West 15mph /  24.1km/h 31mph /  49.9km/h 72% 0.06in /  1.52mm 65 W/m2
14:04 46.2 °F /  7.9 °C 38 °F /  3.3 °C 29.09in /  985hPa West 12.7mph /  20.4km/h 31mph /  49.9km/h 72.8% 0.06in /  1.52mm 100 W/m2
14:09 46.2 °F /  7.9 °C 38.1 °F /  3.4 °C 29.09in /  985hPa West 15.4mph /  24.8km/h 23mph /  37km/h 73% 0.06in /  1.52mm 95 W/m2
14:14 46.2 °F /  7.9 °C 38.1 °F /  3.4 °C 29.10in /  985.3hPa West 16.2mph /  26.1km/h 27mph /  43.5km/h 73% 0.06in /  1.52mm 88 W/m2
14:19 46.2 °F /  7.9 °C 38.1 °F /  3.4 °C 29.10in /  985.3hPa West 12.6mph /  20.3km/h 23mph /  37km/h 73% 0.06in /  1.52mm 77 W/m2
14:24 46.1 °F /  7.8 °C 38.1 °F /  3.4 °C 29.10in /  985.3hPa WNW 11.8mph /  19km/h 27mph /  43.5km/h 73.4% 0.05in /  1.27mm 40 W/m2
14:29 45.9 °F /  7.7 °C 38.1 °F /  3.4 °C 29.10in /  985.3hPa West 10.6mph /  17.1km/h 27mph /  43.5km/h 74% 0.03in /  0.76mm 58 W/m2
14:34 45.9 °F /  7.7 °C 38.2 °F /  3.4 °C 29.10in /  985.3hPa West 8.4mph /  13.5km/h 22mph /  35.4km/h 74% 0.01in /  0.25mm 70 W/m2
14:39 46.2 °F /  7.9 °C 38.1 °F /  3.4 °C 29.10in /  985.3hPa WNW 15.4mph /  24.8km/h 25mph /  40.2km/h 73.2% 0.00in /  0mm 72 W/m2
14:44 46.2 °F /  7.9 °C 38.1 °F /  3.4 °C 29.10in /  985.3hPa West 7.7mph /  12.4km/h 18mph /  29km/h 73% 0.00in /  0mm 67 W/m2
14:49 46.2 °F /  7.9 °C 37.9 °F /  3.3 °C 29.10in /  985.3hPa WSW 12.8mph /  20.6km/h 22mph /  35.4km/h 72.2% 0.00in /  0mm 49 W/m2
14:54 46.2 °F /  7.9 °C 37.7 °F /  3.2 °C 29.10in /  985.3hPa West 11.2mph /  18km/h 22mph /  35.4km/h 71.8% 0.00in /  0mm 47 W/m2
14:58 46.2 °F /  7.9 °C 37.8 °F /  3.2 °C 29.10in /  985.3hPa West 9.5mph /  15.3km/h 19mph /  30.6km/h 72% 0.00in /  0mm 42 W/m2
15:04 46 °F /  7.8 °C 37.5 °F /  3.1 °C 29.10in /  985.3hPa West 16.4mph /  26.4km/h 22mph /  35.4km/h 72% 0.00in /  0mm 25 W/m2
15:09 45.7 °F /  7.6 °C 37 °F /  2.8 °C 29.10in /  985.3hPa West 13.6mph /  21.9km/h 25mph /  40.2km/h 71.2% 0.00in /  0mm 32 W/m2
15:14 45.4 °F /  7.4 °C 36.6 °F /  2.6 °C 29.10in /  985.3hPa West 13.8mph /  22.2km/h 27mph /  43.5km/h 71% 0.00in /  0mm 23 W/m2
15:19 45.2 °F /  7.3 °C 36.8 °F /  2.7 °C 29.10in /  985.3hPa West 11.4mph /  18.3km/h 23mph /  37km/h 72% 0.00in /  0mm 21 W/m2
15:24 45.1 °F /  7.3 °C 37 °F /  2.8 °C 29.10in /  985.3hPa West 7.9mph /  12.7km/h 15mph /  24.1km/h 73.3% 0.00in /  0mm 18 W/m2
15:29 45 °F /  7.2 °C 37.2 °F /  2.9 °C 29.10in /  985.3hPa West 10.6mph /  17.1km/h 22mph /  35.4km/h 74% 0.00in /  0mm 16 W/m2
15:34 45 °F /  7.2 °C 37.6 °F /  3.1 °C 29.10in /  985.3hPa West 10.2mph /  16.4km/h 19mph /  30.6km/h 75% 0.00in /  0mm 14 W/m2
15:39 45.1 °F /  7.3 °C 37.8 °F /  3.2 °C 29.10in /  985.3hPa West 10mph /  16.1km/h 17mph /  27.4km/h 75% 0.00in /  0mm 16 W/m2
15:44 45.1 °F /  7.3 °C 37.8 °F /  3.2 °C 29.11in /  985.7hPa West 6.4mph /  10.3km/h 14mph /  22.5km/h 75% 0.00in /  0mm 19 W/m2
15:49 45.2 °F /  7.3 °C 37.8 °F /  3.2 °C 29.11in /  985.7hPa West 11.8mph /  19km/h 17mph /  27.4km/h 75% 0.00in /  0mm 12 W/m2
15:54 45.3 °F /  7.4 °C 37.9 °F /  3.3 °C 29.10in /  985.3hPa West 6mph /  9.7km/h 16mph /  25.7km/h 75% 0.00in /  0mm 7 W/m2
15:59 45.2 °F /  7.3 °C 37.9 °F /  3.3 °C 29.10in /  985.3hPa West 7.8mph /  12.6km/h 14mph /  22.5km/h 75% 0.00in /  0mm 5 W/m2
16:04 45.2 °F /  7.3 °C 37.9 °F /  3.3 °C 29.10in /  985.3hPa WSW 7.7mph /  12.4km/h 17mph /  27.4km/h 75% 0.00in /  0mm 0 W/m2
16:09 45.3 °F /  7.4 °C 37.9 °F /  3.3 °C 29.09in /  985hPa West 9.2mph /  14.8km/h 15mph /  24.1km/h 75% 0.00in /  0mm 0 W/m2
16:14 45.3 °F /  7.4 °C 37.9 °F /  3.3 °C 29.09in /  985hPa West 10.4mph /  16.7km/h 16mph /  25.7km/h 75% 0.00in /  0mm 0 W/m2
16:19 45.2 °F /  7.3 °C 37.8 °F /  3.2 °C 29.09in /  985hPa West 10mph /  16.1km/h 15mph /  24.1km/h 75% 0.00in /  0mm 0 W/m2
16:24 45.2 °F /  7.3 °C 37.8 °F /  3.2 °C 29.09in /  985hPa WSW 8.3mph /  13.4km/h 13mph /  20.9km/h 75% 0.00in /  0mm 0 W/m2
16:29 45.1 °F /  7.3 °C 37.8 °F /  3.2 °C 29.09in /  985hPa WSW 6.1mph /  9.8km/h 14mph /  22.5km/h 75% 0.00in /  0mm 0 W/m2
16:34 45.1 °F /  7.3 °C 37.8 °F /  3.2 °C 29.10in /  985.3hPa WSW 7.4mph /  11.9km/h 13mph /  20.9km/h 75% 0.00in /  0mm 0 W/m2
16:39 45.1 °F /  7.3 °C 37.8 °F /  3.2 °C 29.10in /  985.3hPa West 6.6mph /  10.6km/h 14mph /  22.5km/h 75% 0.00in /  0mm 0 W/m2
16:44 45 °F /  7.2 °C 37.9 °F /  3.3 °C 29.10in /  985.3hPa West 6.4mph /  10.3km/h 14mph /  22.5km/h 75.8% 0.00in /  0mm 0 W/m2
16:49 45 °F /  7.2 °C 37.7 °F /  3.2 °C 29.10in /  985.3hPa WSW 5.6mph /  9km/h 13mph /  20.9km/h 75.2% 0.00in /  0mm 0 W/m2
16:54 45 °F /  7.2 °C 37.8 °F /  3.2 °C 29.10in /  985.3hPa West 4.9mph /  7.9km/h 10mph /  16.1km/h 75.8% 0.00in /  0mm 0 W/m2
16:59 45 °F /  7.2 °C 37.9 °F /  3.3 °C 29.10in /  985.3hPa West 4.5mph /  7.2km/h 8mph /  12.9km/h 76% 0.00in /  0mm 0 W/m2
17:04 44.9 °F /  7.2 °C 37.6 °F /  3.1 °C 29.09in /  985hPa West 3.8mph /  6.1km/h 9mph /  14.5km/h 75.4% 0.00in /  0mm 0 W/m2
17:09 44.8 °F /  7.1 °C 37.8 °F /  3.2 °C 29.08in /  984.6hPa West 2mph /  3.2km/h 5mph /  8km/h 76% 0.00in /  0mm 0 W/m2
17:14 44.8 °F /  7.1 °C 37.8 °F /  3.2 °C 29.08in /  984.6hPa West 1.5mph /  2.4km/h 4mph /  6.4km/h 76% 0.00in /  0mm 0 W/m2
17:19 44.8 °F /  7.1 °C 37.8 °F /  3.2 °C 29.08in /  984.6hPa West 1mph /  1.6km/h 4mph /  6.4km/h 76% 0.00in /  0mm 0 W/m2
17:24 44.6 °F /  7 °C 37.8 °F /  3.2 °C 29.08in /  984.6hPa WSW 2.6mph /  4.2km/h 7mph /  11.3km/h 77% 0.00in /  0mm 0 W/m2
17:29 44.6 °F /  7 °C 37.8 °F /  3.2 °C 29.08in /  984.6hPa WSW 2.2mph /  3.5km/h 6mph /  9.7km/h 77% 0.00in /  0mm 0 W/m2
17:34 44.8 °F /  7.1 °C 37.9 °F /  3.3 °C 29.09in /  985hPa WSW 5.2mph /  8.4km/h 7mph /  11.3km/h 77% 0.00in /  0mm 0 W/m2
17:39 45 °F /  7.2 °C 38.1 °F /  3.4 °C 29.09in /  985hPa WSW 5.3mph /  8.5km/h 10mph /  16.1km/h 77% 0.00in /  0mm 0 W/m2
17:44 45 °F /  7.2 °C 38.1 °F /  3.4 °C 29.09in /  985hPa WSW 8.6mph /  13.8km/h 14mph /  22.5km/h 77% 0.00in /  0mm 0 W/m2
17:49 45 °F /  7.2 °C 38.1 °F /  3.4 °C 29.09in /  985hPa WSW 4.4mph /  7.1km/h 14mph /  22.5km/h 77% 0.00in /  0mm 0 W/m2
17:54 45 °F /  7.2 °C 38.1 °F /  3.4 °C 29.09in /  985hPa WSW 4mph /  6.4km/h 12mph /  19.3km/h 77% 0.00in /  0mm 0 W/m2
17:59 45 °F /  7.2 °C 38.4 °F /  3.6 °C 29.08in /  984.6hPa WSW 4.5mph /  7.2km/h 12mph /  19.3km/h 77.8% 0.00in /  0mm 0 W/m2
18:04 45.1 °F /  7.3 °C 38.6 °F /  3.7 °C 29.08in /  984.6hPa WSW 6.2mph /  10km/h 10mph /  16.1km/h 78% 0.00in /  0mm 0 W/m2
18:09 45.1 °F /  7.3 °C 38.7 °F /  3.7 °C 29.07in /  984.3hPa West 2.8mph /  4.5km/h 10mph /  16.1km/h 78% 0.00in /  0mm 0 W/m2
18:14 45.1 °F /  7.3 °C 38.7 °F /  3.7 °C 29.06in /  984hPa WSW 3.2mph /  5.1km/h 8mph /  12.9km/h 78% 0.00in /  0mm 0 W/m2
18:19 45.1 °F /  7.3 °C 39 °F /  3.9 °C 29.05in /  983.6hPa WSW 2.1mph /  3.4km/h 4mph /  6.4km/h 79% 0.00in /  0mm 0 W/m2
18:24 45.1 °F /  7.3 °C 38.9 °F /  3.8 °C 29.05in /  983.6hPa WSW 4.6mph /  7.4km/h 6mph /  9.7km/h 79% 0.00in /  0mm 0 W/m2
18:29 45 °F /  7.2 °C 38.9 °F /  3.8 °C 29.06in /  984hPa SW 5.1mph /  8.2km/h 8mph /  12.9km/h 79.2% 0.00in /  0mm 0 W/m2
18:34 44.9 °F /  7.2 °C 39.1 °F /  3.9 °C 29.05in /  983.6hPa WSW 3.9mph /  6.3km/h 9mph /  14.5km/h 80% 0.00in /  0mm 0 W/m2
18:39 44.8 °F /  7.1 °C 39.1 °F /  3.9 °C 29.05in /  983.6hPa WSW 4.6mph /  7.4km/h 11mph /  17.7km/h 80.2% 0.00in /  0mm 0 W/m2
18:44 44.6 °F /  7 °C 39.2 °F /  4 °C 29.05in /  983.6hPa WSW 5.8mph /  9.3km/h 11mph /  17.7km/h 81% 0.00in /  0mm 0 W/m2
18:49 44.6 °F /  7 °C 39.2 °F /  4 °C 29.05in /  983.6hPa WSW 7mph /  11.3km/h 11mph /  17.7km/h 81% 0.00in /  0mm 0 W/m2
18:54 44.4 °F /  6.9 °C 39.1 °F /  3.9 °C 29.04in /  983.3hPa SW 4mph /  6.4km/h 11mph /  17.7km/h 81.6% 0.00in /  0mm 0 W/m2
18:59 44.4 °F /  6.9 °C 39.2 °F /  4 °C 29.04in /  983.3hPa WSW 5.7mph /  9.2km/h 11mph /  17.7km/h 82% 0.00in /  0mm 0 W/m2
19:04 44.4 °F /  6.9 °C 39.2 °F /  4 °C 29.04in /  983.3hPa WSW 4.5mph /  7.2km/h 9mph /  14.5km/h 82% 0.00in /  0mm 0 W/m2
19:09 44.2 °F /  6.8 °C 39 °F /  3.9 °C 29.03in /  983hPa West 3mph /  4.8km/h 7mph /  11.3km/h 82% 0.00in /  0mm 0 W/m2
19:14 44.2 °F /  6.8 °C 39.2 °F /  4 °C 29.03in /  983hPa WSW 2mph /  3.2km/h 6mph /  9.7km/h 82.4% 0.00in /  0mm 0 W/m2
19:19 44.1 °F /  6.7 °C 39.3 °F /  4.1 °C 29.02in /  982.6hPa SW 3mph /  4.8km/h 8mph /  12.9km/h 83% 0.00in /  0mm 0 W/m2
19:24 44.1 °F /  6.7 °C 39.4 °F /  4.1 °C 29.02in /  982.6hPa SW 3.4mph /  5.5km/h 8mph /  12.9km/h 83.6% 0.00in /  0mm 0 W/m2
19:29 44.1 °F /  6.7 °C 39.6 °F /  4.2 °C 29.01in /  982.3hPa SW 7.5mph /  12.1km/h 12mph /  19.3km/h 84% 0.00in /  0mm 0 W/m2
19:34 43.9 °F /  6.6 °C 39.6 °F /  4.2 °C 29.02in /  982.6hPa SW 7.7mph /  12.4km/h 12mph /  19.3km/h 84.8% 0.00in /  0mm 0 W/m2
19:39 43.6 °F /  6.4 °C 39.6 °F /  4.2 °C 29.02in /  982.6hPa SW 7.4mph /  11.9km/h 9mph /  14.5km/h 85.4% 0.00in /  0mm 0 W/m2
19:44 43.5 °F /  6.4 °C 39.6 °F /  4.2 °C 29.02in /  982.6hPa WSW 4.8mph /  7.7km/h 10mph /  16.1km/h 86% 0.00in /  0mm 0 W/m2
19:49 43.3 °F /  6.3 °C 39.6 °F /  4.2 °C 29.01in /  982.3hPa SW 3.8mph /  6.1km/h 9mph /  14.5km/h 86.4% 0.01in /  0.25mm 0 W/m2
19:54 43.3 °F /  6.3 °C 39.7 °F /  4.3 °C 29.01in /  982.3hPa SW 4.6mph /  7.4km/h 7mph /  11.3km/h 87% 0.01in /  0.25mm 0 W/m2
19:59 43.2 °F /  6.2 °C 39.8 °F /  4.3 °C 29.01in /  982.3hPa SW 5.2mph /  8.4km/h 11mph /  17.7km/h 87.8% 0.01in /  0.25mm 0 W/m2
20:04 43.2 °F /  6.2 °C 39.9 °F /  4.4 °C 29.00in /  981.9hPa SW 1.2mph /  1.9km/h 5mph /  8km/h 88% 0.02in /  0.51mm 0 W/m2
20:09 43.1 °F /  6.2 °C 39.8 °F /  4.3 °C 28.99in /  981.6hPa SW 1.7mph /  2.7km/h 6mph /  9.7km/h 88% 0.02in /  0.51mm 0 W/m2
20:14 43 °F /  6.1 °C 39.9 °F /  4.4 °C 28.99in /  981.6hPa SW 0.4mph /  0.6km/h 4mph /  6.4km/h 89% 0.02in /  0.51mm 0 W/m2
20:19 43 °F /  6.1 °C 39.9 °F /  4.4 °C 28.98in /  981.3hPa Calm     89% 0.02in /  0.51mm 0 W/m2
20:24 43 °F /  6.1 °C 39.9 °F /  4.4 °C 28.97in /  980.9hPa Calm   3mph /  4.8km/h 89% 0.02in /  0.51mm 0 W/m2
20:29 43 °F /  6.1 °C 39.9 °F /  4.4 °C 28.97in /  980.9hPa SW 0.2mph /  0.3km/h 1mph /  1.6km/h 89% 0.02in /  0.51mm 0 W/m2
20:34 42.8 °F /  6 °C 39.9 °F /  4.4 °C 28.97in /  980.9hPa SW 0.4mph /  0.6km/h 2mph /  3.2km/h 89.4% 0.02in /  0.51mm 0 W/m2
20:39 42.7 °F /  5.9 °C 40 °F /  4.4 °C 28.96in /  980.6hPa Calm   1mph /  1.6km/h 90% 0.02in /  0.51mm 0 W/m2
20:44 42.6 °F /  5.9 °C 39.9 °F /  4.4 °C 28.96in /  980.6hPa Calm     90% 0.02in /  0.51mm 0 W/m2
20:48 42.6 °F /  5.9 °C 39.9 °F /  4.4 °C 28.96in /  980.6hPa SW 0.3mph /  0.5km/h 1mph /  1.6km/h 90% 0.01in /  0.25mm 0 W/m2
20:54 42.6 °F /  5.9 °C 39.9 °F /  4.4 °C 28.96in /  980.6hPa Calm   1mph /  1.6km/h 90% 0.01in /  0.25mm 0 W/m2
20:59 42.6 °F /  5.9 °C 39.9 °F /  4.4 °C 28.96in /  980.6hPa Calm     90% 0.01in /  0.25mm 0 W/m2
21:04 42.6 °F /  5.9 °C 40 °F /  4.4 °C 28.95in /  980.2hPa Calm     90.4% 0.01in /  0.25mm 0 W/m2
21:09 42.6 °F /  5.9 °C 40.1 °F /  4.5 °C 28.95in /  980.2hPa Calm     91% 0.01in /  0.25mm 0 W/m2
21:14 42.6 °F /  5.9 °C 40.1 °F /  4.5 °C 28.95in /  980.2hPa SW 0.8mph /  1.3km/h 3mph /  4.8km/h 91% 0.01in /  0.25mm 0 W/m2
21:19 42.6 °F /  5.9 °C 40.1 °F /  4.5 °C 28.95in /  980.2hPa Calm   1mph /  1.6km/h 91% 0.01in /  0.25mm 0 W/m2
21:24 42.6 °F /  5.9 °C 40.1 °F /  4.5 °C 28.95in /  980.2hPa Calm     91% 0.01in /  0.25mm 0 W/m2
21:29 42.6 °F /  5.9 °C 40.1 °F /  4.5 °C 28.95in /  980.2hPa Calm     91% 0.01in /  0.25mm 0 W/m2
21:34 42.6 °F /  5.9 °C 40.1 °F /  4.5 °C 28.94in /  979.9hPa Calm     91% 0.01in /  0.25mm 0 W/m2
21:39 42.6 °F /  5.9 °C 40.1 °F /  4.5 °C 28.95in /  980.2hPa Calm     91% 0.01in /  0.25mm 0 W/m2
21:44 42.6 °F /  5.9 °C 40.1 °F /  4.5 °C 28.94in /  979.9hPa SW 0.2mph /  0.3km/h 1mph /  1.6km/h 91% 0.01in /  0.25mm 0 W/m2
21:49 42.6 °F /  5.9 °C 40.2 °F /  4.6 °C 28.95in /  980.2hPa SW 0.6mph /  1km/h 3mph /  4.8km/h 91.2% 0.02in /  0.51mm 0 W/m2
21:54 42.5 °F /  5.8 °C 40.4 °F /  4.7 °C 28.95in /  980.2hPa Calm     92% 0.02in /  0.51mm 0 W/m2
21:59 42.5 °F /  5.8 °C 40.4 °F /  4.7 °C 28.95in /  980.2hPa Calm     92% 0.02in /  0.51mm 0 W/m2
22:04 42.5 °F /  5.8 °C 40.4 °F /  4.7 °C 28.97in /  980.9hPa Calm     92% 0.02in /  0.51mm 0 W/m2
22:09 42.4 °F /  5.8 °C 40.3 °F /  4.6 °C 28.96in /  980.6hPa Calm     92% 0.01in /  0.25mm 0 W/m2
22:14 42.4 °F /  5.8 °C 40.3 °F /  4.6 °C 28.97in /  980.9hPa SW 0.2mph /  0.3km/h 1mph /  1.6km/h 92% 0.01in /  0.25mm 0 W/m2
22:19 42.4 °F /  5.8 °C 40.3 °F /  4.6 °C 28.97in /  980.9hPa SW 0.2mph /  0.3km/h 4mph /  6.4km/h 92% 0.01in /  0.25mm 0 W/m2
22:24 42.4 °F /  5.8 °C 40.3 °F /  4.6 °C 28.97in /  980.9hPa SW 0.5mph /  0.8km/h 4mph /  6.4km/h 92% 0.01in /  0.25mm 0 W/m2
22:29 42.3 °F /  5.7 °C 40.2 °F /  4.6 °C 28.98in /  981.3hPa WSW 1.9mph /  3.1km/h 5mph /  8km/h 92% 0.01in /  0.25mm 0 W/m2
22:34 42.3 °F /  5.7 °C 40.1 °F /  4.5 °C 28.98in /  981.3hPa WNW 4.8mph /  7.7km/h 10mph /  16.1km/h 92.2% 0.01in /  0.25mm 0 W/m2
22:39 42.2 °F /  5.7 °C 40.4 °F /  4.7 °C 28.99in /  981.6hPa NW 4.8mph /  7.7km/h 8mph /  12.9km/h 93% 0.01in /  0.25mm 0 W/m2
22:44 42 °F /  5.6 °C 40.2 °F /  4.6 °C 29.00in /  981.9hPa WNW 3.9mph /  6.3km/h 10mph /  16.1km/h 93% 0.01in /  0.25mm 0 W/m2
22:49 41.9 °F /  5.5 °C 40.1 °F /  4.5 °C 29.00in /  981.9hPa WNW 2mph /  3.2km/h 8mph /  12.9km/h 93% 0.01in /  0.25mm 0 W/m2
22:54 41.9 °F /  5.5 °C 40.1 °F /  4.5 °C 29.01in /  982.3hPa WNW 4.9mph /  7.9km/h 9mph /  14.5km/h 93% 0.01in /  0.25mm 0 W/m2
22:59 41.8 °F /  5.4 °C 40 °F /  4.4 °C 29.01in /  982.3hPa WNW 2.4mph /  3.9km/h 8mph /  12.9km/h 93% 0.01in /  0.25mm 0 W/m2
23:04 41.8 °F /  5.4 °C 40.1 °F /  4.5 °C 29.00in /  981.9hPa WNW 6.2mph /  10km/h 10mph /  16.1km/h 93% 0.01in /  0.25mm 0 W/m2
23:09 41.8 °F /  5.4 °C 40 °F /  4.4 °C 29.01in /  982.3hPa WNW 3.6mph /  5.8km/h 10mph /  16.1km/h 93% 0.01in /  0.25mm 0 W/m2
23:14 41.7 °F /  5.4 °C 39.9 °F /  4.4 °C 29.01in /  982.3hPa West 3mph /  4.8km/h 7mph /  11.3km/h 93% 0.01in /  0.25mm 0 W/m2
23:18 41.5 °F /  5.3 °C 39.7 °F /  4.3 °C 29.02in /  982.6hPa West 3.5mph /  5.6km/h 5mph /  8km/h 93% 0.01in /  0.25mm 0 W/m2
23:24 41.5 °F /  5.3 °C 39.7 °F /  4.3 °C 29.03in /  983hPa West 2.6mph /  4.2km/h 6mph /  9.7km/h 93% 0.01in /  0.25mm 0 W/m2
23:29 41.5 °F /  5.3 °C 39.7 °F /  4.3 °C 29.04in /  983.3hPa West 2.4mph /  3.9km/h 8mph /  12.9km/h 93% 0.01in /  0.25mm 0 W/m2
23:34 41.5 °F /  5.3 °C 39.7 °F /  4.3 °C 29.05in /  983.6hPa WNW 3.5mph /  5.6km/h 8mph /  12.9km/h 93% 0.01in /  0.25mm 0 W/m2
23:39 41.5 °F /  5.3 °C 39.7 °F /  4.3 °C 29.05in /  983.6hPa WNW 3.7mph /  6km/h 7mph /  11.3km/h 93% 0.01in /  0.25mm 0 W/m2
23:44 41.4 °F /  5.2 °C 39.6 °F /  4.2 °C 29.05in /  983.6hPa West 2mph /  3.2km/h 7mph /  11.3km/h 93% 0.01in /  0.25mm 0 W/m2
23:49 41.4 °F /  5.2 °C 39.6 °F /  4.2 °C 29.05in /  983.6hPa WSW 2.7mph /  4.3km/h 6mph /  9.7km/h 93% 0.01in /  0.25mm 0 W/m2
23:54 41.4 °F /  5.2 °C 39.6 °F /  4.2 °C 29.05in /  983.6hPa WSW 4mph /  6.4km/h 6mph /  9.7km/h 93% 0.00in /  0mm 0 W/m2
23:59 41.2 °F /  5.1 °C 39.4 °F /  4.1 °C 29.06in /  984hPa WSW 3.6mph /  5.8km/h 6mph /  9.7km/h 93% 0.00in /  0mm 0 W/m2
Bath Spa Weather
Compliments of Weather Underground - 2 mb